KLM1286 EHAM-ELLX
Flight info
| Callsign | KLM1286 |
|---|---|
| Flight time | N/A |
| Altitude | 23000 |
| Route | LOPIK N852 LNO |
| Aircraft | A20N/M-SDE2E3FGHIRWXY/LB1 |
Departure
| Time | 2026-04-18 10:19 |
|---|---|
| Airport | Amsterdam Airport Schiphol (EHAM) |
Arrival
| Time | N/A |
|---|---|
| Airport | Luxembourg-Findel International Airport (ELLX) |
| Time | Latitude | Longitude | Altitude | Speed | Heading |
|---|---|---|---|---|---|
| 2026-04-18 09:40 | 52.30509 | 4.76555 | -3 ft | 0 kts | 59° |
| 2026-04-18 10:09 | 52.30503 | 4.76538 | -3 ft | 2 kts | 58° |
| 2026-04-18 10:09 | 52.30495 | 4.76518 | -3 ft | 2 kts | 59° |
| 2026-04-18 10:10 | 52.30489 | 4.76495 | -3 ft | 2 kts | 85° |
| 2026-04-18 10:10 | 52.30490 | 4.76471 | -3 ft | 2 kts | 107° |
| 2026-04-18 10:10 | 52.30497 | 4.76449 | -3 ft | 2 kts | 131° |
| 2026-04-18 10:10 | 52.30504 | 4.76438 | -3 ft | 0 kts | 146° |
| 2026-04-18 10:11 | 52.30510 | 4.76432 | -3 ft | 0 kts | 148° |
| 2026-04-18 10:15 | 52.30504 | 4.76438 | -3 ft | 2 kts | 148° |
| 2026-04-18 10:15 | 52.30479 | 4.76463 | -4 ft | 5 kts | 148° |
| 2026-04-18 10:15 | 52.30444 | 4.76500 | -4 ft | 6 kts | 147° |
| 2026-04-18 10:16 | 52.30400 | 4.76547 | -3 ft | 8 kts | 147° |
| 2026-04-18 10:16 | 52.30360 | 4.76609 | -3 ft | 6 kts | 121° |
| 2026-04-18 10:16 | 52.30337 | 4.76682 | -3 ft | 8 kts | 117° |
| 2026-04-18 10:16 | 52.30314 | 4.76777 | -4 ft | 9 kts | 93° |
| 2026-04-18 10:17 | 52.30339 | 4.76889 | -3 ft | 11 kts | 60° |
| 2026-04-18 10:17 | 52.30381 | 4.76999 | -3 ft | 9 kts | 57° |
| 2026-04-18 10:17 | 52.30420 | 4.77098 | -3 ft | 9 kts | 58° |
| 2026-04-18 10:17 | 52.30430 | 4.77189 | -4 ft | 8 kts | 101° |
| 2026-04-18 10:18 | 52.30394 | 4.77266 | -4 ft | 9 kts | 131° |
| 2026-04-18 10:18 | 52.30353 | 4.77352 | -4 ft | 8 kts | 139° |
| 2026-04-18 10:18 | 52.30302 | 4.77339 | -4 ft | 9 kts | 226° |
| 2026-04-18 10:18 | 52.30286 | 4.77305 | -4 ft | 0 kts | 236° |
| 2026-04-18 10:19 | 52.30276 | 4.77280 | -4 ft | 18 kts | 237° |
| 2026-04-18 10:19 | 52.30047 | 4.76669 | -3 ft | 104 kts | 238° |
| 2026-04-18 10:19 | 52.29538 | 4.75344 | 88 ft | 160 kts | 238° |
| 2026-04-18 10:19 | 52.28924 | 4.73725 | 637 ft | 177 kts | 239° |
| 2026-04-18 10:20 | 52.28257 | 4.71996 | 1535 ft | 185 kts | 239° |
| 2026-04-18 10:20 | 52.27591 | 4.70302 | 2596 ft | 178 kts | 235° |
| 2026-04-18 10:20 | 52.26717 | 4.69058 | 3657 ft | 170 kts | 208° |
| 2026-04-18 10:20 | 52.25594 | 4.68600 | 4518 ft | 173 kts | 185° |
| 2026-04-18 10:21 | 52.24365 | 4.68910 | 5169 ft | 191 kts | 162° |
| 2026-04-18 10:21 | 52.23241 | 4.70093 | 5940 ft | 202 kts | 138° |
| 2026-04-18 10:21 | 52.22411 | 4.71981 | 6691 ft | 213 kts | 125° |
| 2026-04-18 10:21 | 52.21650 | 4.74147 | 7276 ft | 230 kts | 123° |
| 2026-04-18 10:22 | 52.20839 | 4.76507 | 7863 ft | 248 kts | 123° |
| 2026-04-18 10:22 | 52.19975 | 4.79023 | 8445 ft | 267 kts | 123° |
| 2026-04-18 10:22 | 52.19040 | 4.81732 | 9037 ft | 285 kts | 123° |
| 2026-04-18 10:22 | 52.18048 | 4.84588 | 9784 ft | 296 kts | 123° |
| 2026-04-18 10:23 | 52.17034 | 4.87505 | 10717 ft | 301 kts | 123° |
| 2026-04-18 10:23 | 52.15885 | 4.90421 | 11320 ft | 313 kts | 133° |
| 2026-04-18 10:23 | 52.14303 | 4.92928 | 11830 ft | 326 kts | 147° |
| 2026-04-18 10:23 | 52.12364 | 4.94921 | 12434 ft | 336 kts | 154° |
| 2026-04-18 10:24 | 52.10332 | 4.96804 | 13258 ft | 341 kts | 154° |
| 2026-04-18 10:24 | 52.08268 | 4.98709 | 14134 ft | 344 kts | 154° |
| 2026-04-18 10:24 | 52.06216 | 5.00613 | 15093 ft | 343 kts | 154° |
| 2026-04-18 10:24 | 52.04186 | 5.02515 | 16284 ft | 334 kts | 154° |
| 2026-04-18 10:25 | 52.02226 | 5.04356 | 17300 ft | 331 kts | 154° |
| 2026-04-18 10:25 | 52.00237 | 5.06217 | 18079 ft | 334 kts | 154° |
| 2026-04-18 10:25 | 51.98222 | 5.08104 | 18791 ft | 338 kts | 155° |
| 2026-04-18 10:25 | 51.96179 | 5.10018 | 19508 ft | 342 kts | 155° |
| 2026-04-18 10:26 | 51.94099 | 5.11838 | 20207 ft | 344 kts | 159° |
| 2026-04-18 10:26 | 51.91892 | 5.13345 | 20920 ft | 344 kts | 165° |
| 2026-04-18 10:26 | 51.89609 | 5.14496 | 21630 ft | 345 kts | 170° |
| 2026-04-18 10:26 | 51.87300 | 5.15525 | 22340 ft | 347 kts | 170° |
| 2026-04-18 10:27 | 51.84977 | 5.16544 | 22925 ft | 351 kts | 171° |
| 2026-04-18 10:27 | 51.82642 | 5.17569 | 23184 ft | 352 kts | 171° |
| 2026-04-18 10:27 | 51.80278 | 5.18611 | 23192 ft | 351 kts | 171° |
| 2026-04-18 10:27 | 51.77933 | 5.19645 | 23179 ft | 351 kts | 171° |
| 2026-04-18 10:28 | 51.75573 | 5.20684 | 23181 ft | 352 kts | 171° |
| 2026-04-18 10:28 | 51.73219 | 5.21723 | 23196 ft | 352 kts | 170° |
| 2026-04-18 10:28 | 51.70868 | 5.22759 | 23182 ft | 352 kts | 171° |
| 2026-04-18 10:28 | 51.68502 | 5.23800 | 23182 ft | 351 kts | 171° |
| 2026-04-18 10:29 | 51.66140 | 5.24840 | 23186 ft | 352 kts | 171° |
| 2026-04-18 10:29 | 51.63804 | 5.25865 | 23184 ft | 352 kts | 171° |
| 2026-04-18 10:29 | 51.61439 | 5.26903 | 23183 ft | 352 kts | 171° |
| 2026-04-18 10:29 | 51.59079 | 5.27939 | 23190 ft | 353 kts | 171° |
| 2026-04-18 10:30 | 51.56720 | 5.28971 | 23190 ft | 353 kts | 171° |
| 2026-04-18 10:30 | 51.54351 | 5.30007 | 23184 ft | 353 kts | 171° |
| 2026-04-18 10:30 | 51.51987 | 5.31039 | 23196 ft | 353 kts | 171° |
| 2026-04-18 10:30 | 51.49609 | 5.32078 | 23189 ft | 354 kts | 171° |
| 2026-04-18 10:31 | 51.47241 | 5.33110 | 23195 ft | 354 kts | 171° |
| 2026-04-18 10:31 | 51.44865 | 5.34144 | 23200 ft | 354 kts | 171° |
| 2026-04-18 10:31 | 51.42484 | 5.35180 | 23193 ft | 355 kts | 171° |
| 2026-04-18 10:31 | 51.40118 | 5.36209 | 23198 ft | 355 kts | 170° |
| 2026-04-18 10:32 | 51.37742 | 5.37242 | 23195 ft | 355 kts | 170° |
| 2026-04-18 10:32 | 51.35387 | 5.38270 | 23195 ft | 355 kts | 170° |
| 2026-04-18 10:32 | 51.32999 | 5.39311 | 23191 ft | 355 kts | 170° |
| 2026-04-18 10:32 | 51.30609 | 5.40350 | 23184 ft | 355 kts | 170° |
| 2026-04-18 10:33 | 51.28241 | 5.41380 | 23182 ft | 355 kts | 170° |
| 2026-04-18 10:33 | 51.25856 | 5.42342 | 23191 ft | 353 kts | 173° |
| 2026-04-18 10:33 | 51.23466 | 5.43144 | 23197 ft | 353 kts | 174° |
| 2026-04-18 10:33 | 51.21078 | 5.43945 | 23187 ft | 353 kts | 174° |
| 2026-04-18 10:34 | 51.18672 | 5.44765 | 23190 ft | 354 kts | 172° |
| 2026-04-18 10:34 | 51.16298 | 5.45749 | 23196 ft | 356 kts | 170° |
| 2026-04-18 10:34 | 51.13899 | 5.46802 | 23195 ft | 356 kts | 170° |
| 2026-04-18 10:34 | 51.11527 | 5.47838 | 23190 ft | 356 kts | 170° |
| 2026-04-18 10:35 | 51.09132 | 5.48882 | 23187 ft | 356 kts | 170° |
| 2026-04-18 10:35 | 51.06755 | 5.49917 | 23189 ft | 357 kts | 170° |
| 2026-04-18 10:35 | 51.04364 | 5.50960 | 23190 ft | 357 kts | 170° |
| 2026-04-18 10:35 | 51.01973 | 5.51999 | 23197 ft | 358 kts | 170° |
| 2026-04-18 10:36 | 50.99586 | 5.53037 | 23194 ft | 358 kts | 170° |
| 2026-04-18 10:36 | 50.97175 | 5.54084 | 23194 ft | 358 kts | 170° |
| 2026-04-18 10:36 | 50.94800 | 5.55113 | 23194 ft | 357 kts | 170° |
| 2026-04-18 10:36 | 50.92407 | 5.56151 | 23195 ft | 357 kts | 170° |
| 2026-04-18 10:37 | 50.89995 | 5.57195 | 23191 ft | 357 kts | 170° |
| 2026-04-18 10:37 | 50.87607 | 5.58226 | 23194 ft | 357 kts | 170° |
| 2026-04-18 10:37 | 50.85211 | 5.59263 | 23197 ft | 357 kts | 170° |
| 2026-04-18 10:37 | 50.82807 | 5.60300 | 23197 ft | 358 kts | 170° |
| 2026-04-18 10:38 | 50.80434 | 5.61323 | 23201 ft | 358 kts | 170° |
| 2026-04-18 10:38 | 50.78014 | 5.62366 | 23197 ft | 359 kts | 170° |
| 2026-04-18 10:38 | 50.75613 | 5.63396 | 23196 ft | 359 kts | 169° |
| 2026-04-18 10:38 | 50.73208 | 5.64429 | 23171 ft | 360 kts | 170° |
| 2026-04-18 10:39 | 50.70816 | 5.65457 | 22926 ft | 358 kts | 171° |
| 2026-04-18 10:39 | 50.68409 | 5.66490 | 22661 ft | 356 kts | 170° |
| 2026-04-18 10:39 | 50.66037 | 5.67554 | 22403 ft | 356 kts | 169° |
| 2026-04-18 10:39 | 50.63665 | 5.68659 | 22146 ft | 355 kts | 169° |
| 2026-04-18 10:40 | 50.61305 | 5.69761 | 21885 ft | 354 kts | 169° |
| 2026-04-18 10:40 | 50.58954 | 5.70876 | 21630 ft | 354 kts | 167° |
| 2026-04-18 10:40 | 50.57229 | 5.71822 | 21440 ft | 355 kts | 165° |